createdAt,value
2022-09-28T00:01:37.586Z,17.47
2022-09-28T00:04:10.399Z,17.45
2022-09-28T00:06:43.133Z,17.44
2022-09-28T00:09:17.971Z,17.43
2022-09-28T00:11:52.463Z,17.44
2022-09-28T00:14:24.931Z,17.45
2022-09-28T00:16:57.509Z,17.45
2022-09-28T00:19:30.637Z,17.44
2022-09-28T00:22:03.397Z,17.43
2022-09-28T00:24:36.349Z,17.45
2022-09-28T00:27:09.646Z,17.45
2022-09-28T00:29:42.553Z,17.44
2022-09-28T00:32:16.998Z,17.47
2022-09-28T00:34:49.943Z,17.47
2022-09-28T00:37:23.281Z,17.48
2022-09-28T00:39:56.255Z,17.47
2022-09-28T00:42:29.615Z,17.48
2022-09-28T00:45:02.599Z,17.50
2022-09-28T00:47:49.443Z,17.50
2022-09-28T00:50:28.267Z,17.49
2022-09-28T00:53:11.714Z,17.51
2022-09-28T00:55:56.969Z,17.50
2022-09-28T00:58:32.684Z,17.49
2022-09-28T01:01:06.285Z,17.48
2022-09-28T01:03:45.056Z,17.49
2022-09-28T01:06:24.370Z,17.49
2022-09-28T01:09:02.807Z,17.48
2022-09-28T01:11:40.028Z,17.47
2022-09-28T01:14:15.251Z,17.45
2022-09-28T01:17:05.360Z,17.44
2022-09-28T01:20:27.463Z,17.42
2022-09-28T01:23:39.775Z,17.40
2022-09-28T01:26:33.716Z,17.39
2022-09-28T01:29:37.368Z,17.34
2022-09-28T01:32:29.532Z,17.32
2022-09-28T01:35:28.658Z,17.30
2022-09-28T01:38:22.763Z,17.31
2022-09-28T01:40:56.764Z,17.31
2022-09-28T01:43:31.475Z,17.30
2022-09-28T01:46:20.804Z,17.30
2022-09-28T01:48:58.187Z,17.29
2022-09-28T01:51:43.618Z,17.29
2022-09-28T01:54:21.738Z,17.28
2022-09-28T01:57:02.266Z,17.26
2022-09-28T01:59:36.903Z,17.26
2022-09-28T02:02:22.913Z,17.23
2022-09-28T02:05:16.661Z,17.22
2022-09-28T02:08:07.582Z,17.22
2022-09-28T02:11:00.005Z,17.22
2022-09-28T02:13:40.887Z,17.19
2022-09-28T02:16:22.455Z,17.16
2022-09-28T02:18:55.550Z,17.12
2022-09-28T02:21:32.869Z,17.09
2022-09-28T02:24:12.525Z,17.07
2022-09-28T02:26:47.883Z,17.04
2022-09-28T02:29:20.651Z,17.04
2022-09-28T02:31:54.343Z,17.02
2022-09-28T02:34:27.262Z,16.99
2022-09-28T02:37:00.948Z,16.97
2022-09-28T02:39:34.407Z,16.96
2022-09-28T02:42:24.306Z,16.95
2022-09-28T02:45:07.782Z,16.93
2022-09-28T02:48:19.140Z,16.92
2022-09-28T02:51:08.920Z,16.92
2022-09-28T02:54:16.635Z,16.93
2022-09-28T02:57:03.250Z,16.95
2022-09-28T02:59:57.435Z,16.97
2022-09-28T03:02:34.951Z,17.00
2022-09-28T03:05:36.791Z,17.02
2022-09-28T03:08:26.141Z,17.04
2022-09-28T03:11:03.751Z,17.04
2022-09-28T03:13:37.717Z,17.03
2022-09-28T03:16:16.149Z,17.04
2022-09-28T03:18:50.843Z,17.03
2022-09-28T03:21:23.810Z,17.03
2022-09-28T03:23:56.993Z,17.01
2022-09-28T03:26:33.013Z,17.02
2022-09-28T03:29:06.819Z,17.03
2022-09-28T03:31:40.045Z,17.03
2022-09-28T03:34:13.034Z,17.02
2022-09-28T03:36:46.603Z,17.01
2022-09-28T03:39:19.243Z,16.99
2022-09-28T03:41:52.469Z,16.96
2022-09-28T03:44:25.397Z,16.94
2022-09-28T03:46:58.622Z,16.93
2022-09-28T03:49:31.429Z,16.93
2022-09-28T03:52:05.226Z,16.93
2022-09-28T03:54:38.314Z,16.92
2022-09-28T03:57:11.314Z,16.91
2022-09-28T03:59:44.262Z,16.90
2022-09-28T04:02:17.471Z,16.88
2022-09-28T04:04:50.756Z,16.88
2022-09-28T04:07:26.880Z,16.89
2022-09-28T04:09:59.609Z,16.91
2022-09-28T04:12:32.535Z,16.95
2022-09-28T04:15:06.570Z,16.98
2022-09-28T04:17:40.325Z,17.00
2022-09-28T04:20:15.984Z,17.02
2022-09-28T04:22:50.573Z,17.00
2022-09-28T04:25:24.380Z,16.99
2022-09-28T04:28:15.678Z,17.00
2022-09-28T04:30:50.244Z,17.00
2022-09-28T04:33:23.028Z,17.02
2022-09-28T04:35:56.070Z,17.02
2022-09-28T04:38:51.403Z,17.04
2022-09-28T04:41:03.613Z,17.07
2022-09-28T04:43:36.372Z,17.08
2022-09-28T04:46:10.638Z,17.12
2022-09-28T04:48:45.495Z,17.15
2022-09-28T04:51:26.312Z,17.17
2022-09-28T04:54:00.012Z,17.21
2022-09-28T04:56:32.931Z,17.28
2022-09-28T04:59:06.407Z,17.34
2022-09-28T05:01:40.275Z,17.43
2022-09-28T05:04:26.237Z,17.52
2022-09-28T05:07:15.650Z,17.57
2022-09-28T05:09:49.164Z,17.58
2022-09-28T05:12:22.565Z,17.57
2022-09-28T05:14:56.744Z,17.56
2022-09-28T05:17:29.670Z,17.52
2022-09-28T05:20:09.233Z,17.48
2022-09-28T05:22:42.183Z,17.47
2022-09-28T05:25:15.214Z,17.48
2022-09-28T05:27:58.713Z,17.48
2022-09-28T05:30:37.895Z,17.52
2022-09-28T05:33:32.175Z,17.57
2022-09-28T05:36:18.638Z,17.62
2022-09-28T05:38:53.067Z,17.64
2022-09-28T05:41:26.241Z,17.66
2022-09-28T05:43:59.533Z,17.69
2022-09-28T05:46:32.575Z,17.75
2022-09-28T05:49:06.264Z,17.83
2022-09-28T05:51:39.478Z,17.89
2022-09-28T05:54:12.537Z,17.95
2022-09-28T05:56:47.096Z,18.01
2022-09-28T05:59:20.163Z,18.06
2022-09-28T06:01:53.893Z,18.15
2022-09-28T06:04:26.731Z,18.21
2022-09-28T06:07:00.704Z,18.26
2022-09-28T06:09:34.489Z,18.26
2022-09-28T06:12:07.709Z,18.27
2022-09-28T06:14:45.453Z,18.27
2022-09-28T06:17:18.553Z,18.28
2022-09-28T06:19:53.532Z,18.28
2022-09-28T06:22:30.805Z,18.28
2022-09-28T06:25:06.965Z,18.30
2022-09-28T06:27:41.606Z,18.31
2022-09-28T06:30:15.513Z,18.31
2022-09-28T06:32:50.250Z,18.29
2022-09-28T06:35:24.869Z,18.28
2022-09-28T06:37:58.320Z,18.30
2022-09-28T06:40:31.483Z,18.34
2022-09-28T06:43:11.337Z,18.32
2022-09-28T06:46:01.940Z,18.32
2022-09-28T06:48:39.359Z,18.31
2022-09-28T06:51:13.838Z,18.29
2022-09-28T06:54:04.479Z,18.29
2022-09-28T06:56:39.435Z,18.34
2022-09-28T06:59:13.328Z,18.34
2022-09-28T07:01:46.721Z,18.37
2022-09-28T07:04:24.395Z,18.37
2022-09-28T07:07:15.172Z,18.35
2022-09-28T07:10:07.350Z,18.34
2022-09-28T07:12:51.342Z,18.34
2022-09-28T07:15:34.777Z,18.34
2022-09-28T07:18:08.809Z,18.34
2022-09-28T07:20:53.142Z,18.33
2022-09-28T07:23:19.788Z,18.32
2022-09-28T07:26:09.298Z,18.32
2022-09-28T07:28:50.002Z,18.36
2022-09-28T07:31:42.106Z,18.38
2022-09-28T07:34:31.911Z,18.40
2022-09-28T07:37:08.381Z,18.46
2022-09-28T07:39:59.807Z,18.52
2022-09-28T07:42:34.428Z,18.58
2022-09-28T07:45:08.901Z,18.61
2022-09-28T07:47:41.978Z,18.65
2022-09-28T07:50:16.982Z,18.74
2022-09-28T07:53:00.706Z,18.84
2022-09-28T07:55:35.982Z,18.92
2022-09-28T07:58:13.350Z,19.01
2022-09-28T08:00:49.712Z,19.06
2022-09-28T08:03:22.826Z,19.14
2022-09-28T08:06:04.041Z,19.27
2022-09-28T08:08:38.098Z,19.41
2022-09-28T08:11:12.769Z,19.56
2022-09-28T08:13:51.696Z,19.63
2022-09-28T08:16:28.734Z,19.64
2022-09-28T08:19:04.824Z,19.64
2022-09-28T08:21:47.564Z,19.63
2022-09-28T08:24:21.351Z,19.62
2022-09-28T08:26:55.955Z,19.64
2022-09-28T08:29:32.019Z,19.64
2022-09-28T08:32:09.384Z,19.68
2022-09-28T08:34:50.048Z,19.73
2022-09-28T08:37:41.043Z,19.80
2022-09-28T08:40:47.799Z,19.84
2022-09-28T08:43:56.492Z,19.88
2022-09-28T08:46:41.240Z,19.92
2022-09-28T08:49:35.414Z,19.95
2022-09-28T08:52:30.144Z,19.96
2022-09-28T08:55:34.895Z,19.97
2022-09-28T08:58:20.767Z,19.99
2022-09-28T09:00:55.149Z,20.02
2022-09-28T09:03:34.339Z,20.08
2022-09-28T09:06:27.610Z,20.16
2022-09-28T09:09:36.375Z,20.22
2022-09-28T09:12:34.180Z,20.28
2022-09-28T09:15:28.644Z,20.28
2022-09-28T09:18:29.071Z,20.27
2022-09-28T09:21:48.929Z,20.19
2022-09-28T09:24:31.952Z,20.12
2022-09-28T09:27:09.215Z,19.96
2022-09-28T09:30:12.203Z,19.82
2022-09-28T09:33:09.587Z,19.71
2022-09-28T09:36:07.239Z,19.68
2022-09-28T09:39:21.419Z,19.68
2022-09-28T09:42:35.983Z,19.67
2022-09-28T09:45:30.280Z,19.65
2022-09-28T09:48:19.177Z,19.61
2022-09-28T09:51:13.521Z,19.58
2022-09-28T09:53:58.737Z,19.56
2022-09-28T09:59:41.366Z,19.58
2022-09-28T10:02:33.194Z,19.59
2022-09-28T10:05:18.317Z,19.59
2022-09-28T10:08:05.612Z,19.59
2022-09-28T10:10:45.342Z,19.57
2022-09-28T10:13:18.991Z,19.55
2022-09-28T10:15:53.030Z,19.50
2022-09-28T10:18:33.905Z,19.44
2022-09-28T10:21:24.989Z,19.36
2022-09-28T10:24:03.758Z,19.19
2022-09-28T10:26:46.681Z,19.02
2022-09-28T10:29:26.712Z,18.87
2022-09-28T10:31:59.542Z,18.75
2022-09-28T10:34:35.763Z,18.65
2022-09-28T10:37:13.068Z,18.51
2022-09-28T10:39:56.561Z,18.38
2022-09-28T10:42:32.913Z,18.29
2022-09-28T10:45:25.335Z,18.24
2022-09-28T10:47:58.533Z,18.20
2022-09-28T10:50:31.769Z,18.12
2022-09-28T10:53:24.033Z,18.07
2022-09-28T10:56:25.342Z,18.05
2022-09-28T10:59:01.147Z,18.01
2022-09-28T11:01:41.576Z,17.98
2022-09-28T11:04:19.344Z,17.97
2022-09-28T11:06:52.300Z,17.97
2022-09-28T11:09:39.460Z,17.97
2022-09-28T11:12:20.627Z,17.99
2022-09-28T11:15:02.962Z,18.04
2022-09-28T11:17:40.611Z,18.16
2022-09-28T11:20:28.743Z,18.29
2022-09-28T11:23:25.472Z,18.38
2022-09-28T11:26:06.644Z,18.47
2022-09-28T11:28:42.353Z,18.52
2022-09-28T11:31:18.530Z,18.56
2022-09-28T11:34:31.477Z,18.62
2022-09-28T11:37:28.067Z,18.72
2022-09-28T11:40:14.838Z,18.83
2022-09-28T11:45:49.756Z,19.05
2022-09-28T11:48:48.887Z,19.11
2022-09-28T11:51:26.568Z,19.16
2022-09-28T11:54:07.950Z,19.25
2022-09-28T11:56:45.221Z,19.38
2022-09-28T11:59:33.307Z,19.45
2022-09-28T12:02:26.335Z,19.49
2022-09-28T12:05:15.930Z,19.50
2022-09-28T12:08:02.563Z,19.48
2022-09-28T12:11:15.934Z,19.50
2022-09-28T12:14:10.360Z,19.57
2022-09-28T12:17:05.694Z,19.57
2022-09-28T12:19:41.945Z,19.58
2022-09-28T12:22:43.939Z,19.56
2022-09-28T12:25:20.416Z,19.53
2022-09-28T12:28:00.270Z,19.49
2022-09-28T12:30:37.651Z,19.42
2022-09-28T12:33:13.460Z,19.35
2022-09-28T12:36:17.999Z,19.28
2022-09-28T12:39:19.083Z,19.26
2022-09-28T12:42:25.732Z,19.31
2022-09-28T12:45:19.491Z,19.41
2022-09-28T12:48:17.507Z,19.53
2022-09-28T12:51:21.719Z,19.56
2022-09-28T12:54:14.559Z,19.58
2022-09-28T12:57:18.919Z,19.67
2022-09-28T13:00:14.642Z,19.70
2022-09-28T13:03:11.587Z,19.70
2022-09-28T13:06:29.149Z,19.74
2022-09-28T13:09:25.125Z,19.76
2022-09-28T13:12:08.555Z,19.81
2022-09-28T13:15:21.112Z,19.86
2022-09-28T13:18:15.865Z,19.87
2022-09-28T13:20:53.495Z,19.85
2022-09-28T13:23:38.495Z,19.86
2022-09-28T13:26:25.756Z,19.88
2022-09-28T13:29:04.139Z,19.88
2022-09-28T13:31:38.405Z,19.89
2022-09-28T13:34:18.095Z,19.88
2022-09-28T13:37:17.851Z,19.86
2022-09-28T13:39:56.772Z,19.83
2022-09-28T13:42:52.416Z,19.78
2022-09-28T13:45:38.998Z,19.76
2022-09-28T13:48:24.839Z,19.76
2022-09-28T13:51:17.271Z,19.74
2022-09-28T13:54:22.684Z,19.73
2022-09-28T13:57:15.249Z,19.70
2022-09-28T14:00:06.100Z,19.67
2022-09-28T14:03:25.890Z,19.63
2022-09-28T14:06:11.282Z,19.64
2022-09-28T14:09:12.138Z,19.64
2022-09-28T14:12:04.361Z,19.65
2022-09-28T14:14:53.564Z,19.66
2022-09-28T14:17:31.509Z,19.65
2022-09-28T14:20:16.397Z,19.67
2022-09-28T14:23:22.347Z,19.68
2022-09-28T14:26:30.164Z,19.69
2022-09-28T14:29:27.032Z,19.68
2022-09-28T14:32:06.253Z,19.71
2022-09-28T14:34:42.975Z,19.75
2022-09-28T14:37:39.861Z,19.76
2022-09-28T14:40:48.704Z,19.77
2022-09-28T14:43:31.038Z,19.77
2022-09-28T14:46:17.464Z,19.76
2022-09-28T14:49:03.937Z,19.78
2022-09-28T14:51:50.857Z,19.79
2022-09-28T14:54:26.744Z,19.79
2022-09-28T14:57:18.911Z,19.77
2022-09-28T14:59:52.476Z,19.74
2022-09-28T15:02:34.632Z,19.69
2022-09-28T15:05:18.293Z,19.65
2022-09-28T15:07:53.654Z,19.62
2022-09-28T15:10:42.808Z,19.59
2022-09-28T15:13:26.514Z,19.53
2022-09-28T15:16:10.146Z,19.49
2022-09-28T15:19:21.701Z,19.44
2022-09-28T15:21:55.089Z,19.41
2022-09-28T15:24:34.197Z,19.37
2022-09-28T15:27:19.330Z,19.34
2022-09-28T15:30:26.445Z,19.33
2022-09-28T15:33:02.909Z,19.28
2022-09-28T15:35:35.962Z,19.26
2022-09-28T15:38:12.274Z,19.27
2022-09-28T15:40:46.167Z,19.25
2022-09-28T15:43:30.098Z,19.22
2022-09-28T15:46:11.440Z,19.21
2022-09-28T15:48:57.335Z,19.21
2022-09-28T15:51:32.561Z,19.20
2022-09-28T15:54:09.974Z,19.22
2022-09-28T15:57:00.241Z,19.18
2022-09-28T15:59:38.479Z,19.16
2022-09-28T16:02:22.932Z,19.16
2022-09-28T16:04:58.855Z,19.18
2022-09-28T16:07:42.897Z,19.18
2022-09-28T16:10:20.405Z,19.15
2022-09-28T16:13:14.600Z,19.13
2022-09-28T16:15:49.320Z,19.14
2022-09-28T16:18:23.878Z,19.13
2022-09-28T16:21:20.759Z,19.13
2022-09-28T16:23:58.654Z,19.12
2022-09-28T16:26:36.248Z,19.09
2022-09-28T16:29:28.896Z,19.10
2022-09-28T16:32:28.785Z,19.10
2022-09-28T16:35:31.032Z,19.10
2022-09-28T16:38:08.643Z,19.06
2022-09-28T16:40:44.412Z,19.03
2022-09-28T16:43:36.322Z,18.99
2022-09-28T16:46:17.966Z,18.96
2022-09-28T16:48:51.966Z,18.94
2022-09-28T16:51:25.557Z,18.92
2022-09-28T16:54:33.209Z,18.88
2022-09-28T16:57:08.706Z,18.83
2022-09-28T16:59:41.877Z,18.78
2022-09-28T17:02:45.124Z,18.72
2022-09-28T17:04:57.411Z,18.67
2022-09-28T17:07:30.562Z,18.58
2022-09-28T17:10:03.728Z,18.52
2022-09-28T17:12:38.001Z,18.47
2022-09-28T17:15:11.473Z,18.42
2022-09-28T17:17:44.781Z,18.38
2022-09-28T17:20:26.524Z,18.34
2022-09-28T17:23:00.373Z,18.30
2022-09-28T17:25:33.815Z,18.27
2022-09-28T17:28:07.210Z,18.23
2022-09-28T17:30:40.149Z,18.18
2022-09-28T17:33:13.801Z,18.14
2022-09-28T17:35:47.110Z,18.09
2022-09-28T17:38:19.959Z,18.05
2022-09-28T17:40:53.144Z,18.00
2022-09-28T17:43:26.426Z,17.95
2022-09-28T17:46:00.751Z,17.92
2022-09-28T17:48:34.046Z,17.88
2022-09-28T17:51:07.558Z,17.85
2022-09-28T17:53:41.142Z,17.81
2022-09-28T17:56:14.988Z,17.77
2022-09-28T17:58:48.287Z,17.72
2022-09-28T18:01:21.858Z,17.70
2022-09-28T18:03:54.608Z,17.68
2022-09-28T18:06:29.347Z,17.64
2022-09-28T18:09:04.238Z,17.63
2022-09-28T18:11:37.035Z,17.60
2022-09-28T18:14:11.352Z,17.54
2022-09-28T18:16:45.787Z,17.51
2022-09-28T18:19:18.135Z,17.49
2022-09-28T18:21:51.081Z,17.48
2022-09-28T18:24:24.386Z,17.46
2022-09-28T18:26:57.556Z,17.45
2022-09-28T18:29:33.371Z,17.44
2022-09-28T18:32:06.500Z,17.45
2022-09-28T18:34:40.079Z,17.44
2022-09-28T18:37:13.322Z,17.43
2022-09-28T18:39:46.718Z,17.43
2022-09-28T18:42:20.819Z,17.42
2022-09-28T18:44:53.834Z,17.39
2022-09-28T18:47:27.994Z,17.35
2022-09-28T18:50:00.887Z,17.33
2022-09-28T18:52:35.534Z,17.30
2022-09-28T18:55:09.697Z,17.26
2022-09-28T18:57:44.483Z,17.24
2022-09-28T19:00:17.742Z,17.21
2022-09-28T19:02:51.488Z,17.22
2022-09-28T19:05:26.201Z,17.21
2022-09-28T19:07:59.916Z,17.21
2022-09-28T19:10:34.760Z,17.26
2022-09-28T19:13:07.799Z,17.26
2022-09-28T19:15:41.339Z,17.24
2022-09-28T19:18:14.664Z,17.22
2022-09-28T19:20:47.827Z,17.23
2022-09-28T19:23:20.713Z,17.22
2022-09-28T19:25:54.052Z,17.22
2022-09-28T19:28:28.839Z,17.21
2022-09-28T19:31:03.968Z,17.21
2022-09-28T19:33:37.544Z,17.20
2022-09-28T19:36:16.844Z,17.18
2022-09-28T19:38:51.506Z,17.17
2022-09-28T19:41:44.610Z,17.17
2022-09-28T19:44:25.895Z,17.16
2022-09-28T19:47:04.144Z,17.12
2022-09-28T19:49:39.312Z,17.12
2022-09-28T19:52:17.732Z,17.12
2022-09-28T19:54:57.611Z,17.10
2022-09-28T19:57:33.205Z,17.10
2022-09-28T20:00:07.056Z,17.13
2022-09-28T20:02:40.414Z,17.13
2022-09-28T20:05:13.416Z,17.14
2022-09-28T20:07:46.736Z,17.17
2022-09-28T20:10:20.387Z,17.18
2022-09-28T20:12:54.113Z,17.21
2022-09-28T20:15:28.394Z,17.18
2022-09-28T20:18:01.122Z,17.17
2022-09-28T20:20:35.073Z,17.18
2022-09-28T20:23:08.131Z,17.15
2022-09-28T20:25:42.680Z,17.16
2022-09-28T20:28:15.765Z,17.18
2022-09-28T20:30:48.635Z,17.21
2022-09-28T20:33:28.693Z,17.21
2022-09-28T20:35:56.618Z,17.21
2022-09-28T20:38:30.446Z,17.21
2022-09-28T20:41:03.923Z,17.21
2022-09-28T20:43:37.395Z,17.20
2022-09-28T20:46:12.806Z,17.16
2022-09-28T20:48:47.619Z,17.13
2022-09-28T20:51:22.206Z,17.11
2022-09-28T20:53:57.230Z,17.05
2022-09-28T20:56:39.023Z,17.03
2022-09-28T20:59:14.725Z,16.96
2022-09-28T21:01:47.671Z,16.93
2022-09-28T21:04:20.899Z,16.92
2022-09-28T21:06:54.181Z,16.89
2022-09-28T21:09:27.243Z,16.87
2022-09-28T21:12:00.464Z,16.85
2022-09-28T21:14:33.698Z,16.83
2022-09-28T21:17:06.793Z,16.81
2022-09-28T21:19:40.101Z,16.78
2022-09-28T21:22:12.887Z,16.75
2022-09-28T21:24:46.029Z,16.72
2022-09-28T21:27:19.246Z,16.70
2022-09-28T21:29:52.081Z,16.65
2022-09-28T21:32:24.997Z,16.61
2022-09-28T21:34:58.641Z,16.59
2022-09-28T21:37:31.273Z,16.57
2022-09-28T21:40:06.195Z,16.55
2022-09-28T21:42:39.112Z,16.54
2022-09-28T21:45:13.027Z,16.51
2022-09-28T21:47:47.575Z,16.49
2022-09-28T21:50:26.759Z,16.48
2022-09-28T21:53:00.426Z,16.45
2022-09-28T21:55:33.385Z,16.39
2022-09-28T21:58:06.356Z,16.36
2022-09-28T22:00:39.219Z,16.31
2022-09-28T22:03:12.023Z,16.26
2022-09-28T22:05:45.039Z,16.20
2022-09-28T22:08:18.189Z,16.15
2022-09-28T22:11:02.645Z,16.09
2022-09-28T22:13:40.317Z,16.06
2022-09-28T22:16:15.037Z,16.03
2022-09-28T22:18:48.767Z,16.00
2022-09-28T22:21:24.939Z,15.98
2022-09-28T22:24:02.933Z,15.95
2022-09-28T22:26:39.667Z,15.93
2022-09-28T22:29:13.036Z,15.88
2022-09-28T22:31:45.996Z,15.86
2022-09-28T22:34:19.082Z,15.83
2022-09-28T22:36:51.760Z,15.81
2022-09-28T22:39:25.063Z,15.80
2022-09-28T22:41:58.228Z,15.78
2022-09-28T22:44:30.918Z,15.77
2022-09-28T22:47:03.912Z,15.73
2022-09-28T22:49:37.657Z,15.74
2022-09-28T22:52:10.799Z,15.72
2022-09-28T22:54:43.546Z,15.72
2022-09-28T22:57:16.383Z,15.70
2022-09-28T22:59:49.289Z,15.66
2022-09-28T23:02:22.633Z,15.62
2022-09-28T23:04:55.463Z,15.60
2022-09-28T23:07:28.303Z,15.57
2022-09-28T23:10:01.614Z,15.56
2022-09-28T23:12:36.059Z,15.54
2022-09-28T23:15:11.375Z,15.50
2022-09-28T23:17:44.337Z,15.46
2022-09-28T23:20:18.083Z,15.45
2022-09-28T23:22:51.345Z,15.47
2022-09-28T23:25:24.254Z,15.48
2022-09-28T23:27:57.706Z,15.50
2022-09-28T23:30:30.818Z,15.50
2022-09-28T23:33:03.624Z,15.53
2022-09-28T23:35:36.844Z,15.56
2022-09-28T23:38:17.578Z,15.58
2022-09-28T23:40:50.475Z,15.60
2022-09-28T23:43:23.499Z,15.62
2022-09-28T23:45:56.345Z,15.63
2022-09-28T23:48:29.232Z,15.63
2022-09-28T23:51:02.937Z,15.63
2022-09-28T23:53:35.878Z,15.60
2022-09-28T23:56:08.784Z,15.58
2022-09-28T23:58:41.701Z,15.56
